Time;durP1;ratioP1;P1;durP2;ratioP2;P2;SDS_P1;SDS_P2;PMS_P1;PMS_P2;Temp;Humidity;BMP_temperature;BMP_pressure;BME280_temperature;BME280_humidity;BME280_pressure;Samples;Min_cycle;Max_cycle;Signal;HPM_P1;HPM_P2
2023/01/10 00:01:50;;;;;;;1.70;1.60;;;6.00;99.90;;;;;;5112776;28;20439;-55
2023/01/10 00:04:17;;;;;;;1.90;1.80;;;6.00;99.90;;;;;;5109604;28;20446;-55
2023/01/10 00:06:44;;;;;;;2.10;1.73;;;6.00;99.90;;;;;;5112909;28;20447;-55
2023/01/10 00:09:12;;;;;;;1.50;1.40;;;6.00;99.90;;;;;;5112154;28;20458;-55
2023/01/10 00:14:27;;;;;;;1.73;1.37;;;5.90;99.90;;;;;;5111981;28;20776;-55
2023/01/10 00:16:54;;;;;;;1.53;1.43;;;5.90;99.90;;;;;;5112123;28;20437;-55
2023/01/10 00:19:22;;;;;;;1.93;1.77;;;6.10;99.90;;;;;;5110260;28;20451;-55
2023/01/10 00:21:49;;;;;;;1.87;1.50;;;6.00;99.90;;;;;;5113097;28;20467;-55
2023/01/10 00:24:18;;;;;;;1.50;1.40;;;6.00;99.90;;;;;;5112915;28;20537;-54
2023/01/10 00:26:49;;;;;;;1.60;1.50;;;6.10;99.90;;;;;;5110793;28;20779;-55
2023/01/10 00:29:18;;;;;;;1.73;1.57;;;6.00;99.90;;;;;;5113127;28;20454;-54
2023/01/10 00:31:46;;;;;;;2.17;1.63;;;6.10;99.90;;;;;;5112684;28;20519;-54
2023/01/10 00:34:14;;;;;;;1.40;1.30;;;6.10;99.90;;;;;;5109864;28;20443;-55
2023/01/10 00:36:41;;;;;;;1.70;1.60;;;6.10;99.90;;;;;;5112378;28;20541;-55
2023/01/10 00:39:12;;;;;;;2.70;1.30;;;6.10;99.90;;;;;;5110888;28;20454;-56
2023/01/10 00:44:26;;;;;;;1.60;1.50;;;6.10;99.90;;;;;;5112517;28;20459;-55
2023/01/10 00:46:54;;;;;;;2.17;1.43;;;6.20;99.90;;;;;;5109859;28;20811;-55
2023/01/10 00:49:21;;;;;;;2.20;2.00;;;6.20;99.90;;;;;;5112275;28;20446;-55
2023/01/10 00:51:49;;;;;;;1.90;1.50;;;6.20;99.90;;;;;;5112357;28;20470;-55
2023/01/10 00:54:16;;;;;;;3.67;1.70;;;6.20;99.90;;;;;;5110564;28;20446;-55
2023/01/10 00:56:43;;;;;;;3.47;1.80;;;6.20;99.90;;;;;;5112365;28;21018;-54
2023/01/10 00:59:10;;;;;;;2.10;1.87;;;6.10;99.90;;;;;;5111568;28;20453;-55
2023/01/10 01:01:37;;;;;;;2.27;2.00;;;6.20;99.90;;;;;;5109684;28;20993;-55
2023/01/10 01:04:06;;;;;;;2.07;1.90;;;6.10;99.90;;;;;;5112139;28;20889;-55
2023/01/10 01:06:33;;;;;;;1.70;1.53;;;6.10;99.90;;;;;;5115338;28;20450;-55
2023/01/10 01:09:00;;;;;;;1.80;1.70;;;6.10;99.90;;;;;;5113661;28;20459;-55
2023/01/10 01:11:27;;;;;;;2.00;1.90;;;6.00;99.90;;;;;;5115417;28;20467;-55
2023/01/10 01:13:54;;;;;;;1.77;1.50;;;6.10;99.90;;;;;;5114891;28;20447;-54
2023/01/10 01:16:22;;;;;;;2.53;2.13;;;6.00;99.90;;;;;;5113157;28;20446;-55
2023/01/10 01:18:49;;;;;;;2.10;1.90;;;6.00;99.90;;;;;;5114501;28;20963;-55
2023/01/10 01:21:18;;;;;;;1.80;1.70;;;6.00;99.90;;;;;;5114245;28;21015;-55
2023/01/10 01:23:45;;;;;;;1.97;1.80;;;6.20;99.90;;;;;;5112955;28;20450;-55
2023/01/10 01:26:12;;;;;;;2.90;1.90;;;6.10;99.90;;;;;;5114969;28;20831;-54
2023/01/10 01:28:39;;;;;;;1.90;1.80;;;6.20;99.90;;;;;;5115794;28;20453;-55
2023/01/10 01:31:10;;;;;;;1.87;1.77;;;6.10;99.90;;;;;;5113241;28;20458;-55
2023/01/10 01:33:37;;;;;;;2.30;2.10;;;6.10;99.90;;;;;;5115274;28;20449;-56
2023/01/10 01:36:09;;;;;;;2.03;1.93;;;6.00;99.90;;;;;;5115205;28;20451;-55
2023/01/10 01:38:38;;;;;;;1.80;1.70;;;6.00;99.90;;;;;;5112770;28;21050;-55
2023/01/10 01:41:55;;;;;;;2.10;2.00;;;6.00;99.90;;;;;;5113370;28;20582;-55
2023/01/10 01:44:01;;;;;;;3.20;1.80;;;6.00;99.90;;;;;;5114481;28;20492;-55
2023/01/10 01:46:29;;;;;;;1.40;1.30;;;5.90;99.90;;;;;;5112708;28;20513;-55
2023/01/10 01:48:56;;;;;;;1.50;1.40;;;5.90;99.90;;;;;;5114915;28;20454;-55
2023/01/10 01:51:28;;;;;;;3.00;1.60;;;5.90;99.90;;;;;;5115170;28;20557;-55
2023/01/10 01:53:59;;;;;;;1.60;1.50;;;5.90;99.90;;;;;;5112665;28;20894;-55
2023/01/10 01:56:30;;;;;;;1.50;1.40;;;5.90;99.90;;;;;;5115158;28;20423;-55
2023/01/10 01:59:02;;;;;;;2.00;1.57;;;5.90;99.90;;;;;;5114369;28;20422;-54
2023/01/10 02:01:31;;;;;;;1.50;1.40;;;5.90;99.90;;;;;;5112594;28;20478;-56
2023/01/10 02:04:03;;;;;;;1.77;1.63;;;5.80;99.90;;;;;;5114132;28;20453;-55
2023/01/10 02:06:30;;;;;;;1.40;1.30;;;5.80;99.90;;;;;;5114040;28;20450;-55
2023/01/10 02:09:07;;;;;;;1.50;1.40;;;5.80;99.90;;;;;;5112518;28;20549;-55
2023/01/10 02:11:34;;;;;;;1.70;1.60;;;5.80;99.90;;;;;;5114696;28;20894;-55
2023/01/10 02:14:05;;;;;;;1.73;1.63;;;5.80;99.90;;;;;;5113812;28;20952;-55
2023/01/10 02:16:32;;;;;;;2.43;1.60;;;5.80;99.90;;;;;;5112921;28;20591;-54
2023/01/10 02:19:00;;;;;;;2.17;1.67;;;5.80;99.90;;;;;;5114790;28;20449;-55
2023/01/10 02:21:42;;;;;;;1.83;1.73;;;5.80;99.90;;;;;;5114387;28;20478;-55
2023/01/10 02:24:53;;;;;;;1.80;1.60;;;5.70;99.90;;;;;;5112001;28;20438;-55
2023/01/10 02:27:27;;;;;;;2.03;1.70;;;5.60;99.90;;;;;;5114194;28;20561;-55
2023/01/10 02:30:33;;;;;;;1.93;1.80;;;5.60;99.90;;;;;;5111923;28;20964;-54
2023/01/10 02:33:08;;;;;;;2.33;1.77;;;5.60;99.90;;;;;;5103131;28;20450;-55
2023/01/10 02:36:00;;;;;;;2.10;2.00;;;5.60;99.90;;;;;;5113930;28;20422;-55
2023/01/10 02:38:42;;;;;;;2.40;2.20;;;5.40;99.90;;;;;;5112136;28;20461;-55
2023/01/10 02:41:15;;;;;;;2.03;1.93;;;5.40;99.90;;;;;;5112774;28;20825;-56
2023/01/10 02:43:48;;;;;;;3.03;2.20;;;5.50;99.90;;;;;;5112679;28;20427;-55
2023/01/10 02:46:20;;;;;;;3.80;1.90;;;5.50;99.90;;;;;;5111320;28;20438;-55
2023/01/10 02:48:48;;;;;;;3.80;2.20;;;5.40;99.90;;;;;;5113573;28;20431;-55
2023/01/10 02:51:20;;;;;;;1.90;1.80;;;5.50;99.90;;;;;;5113277;28;20462;-55
2023/01/10 02:53:52;;;;;;;2.30;1.80;;;5.40;99.90;;;;;;5111574;28;20437;-56
2023/01/10 02:56:52;;;;;;;1.93;1.73;;;5.40;99.90;;;;;;5113741;28;20434;-55
2023/01/10 02:59:42;;;;;;;2.60;2.40;;;5.40;99.90;;;;;;5113178;28;20441;-56
2023/01/10 03:02:17;;;;;;;8.73;1.90;;;5.30;99.90;;;;;;5112510;28;20588;-56
2023/01/10 03:04:54;;;;;;;1.90;1.80;;;5.40;99.90;;;;;;5112792;28;20433;-55
2023/01/10 03:07:28;;;;;;;2.13;1.97;;;5.30;99.90;;;;;;5111328;28;20433;-55
2023/01/10 03:09:58;;;;;;;2.70;2.00;;;5.30;99.90;;;;;;5113080;28;20479;-55
2023/01/10 03:12:31;;;;;;;4.20;2.10;;;5.20;99.90;;;;;;5113287;28;20517;-55
2023/01/10 03:15:00;;;;;;;2.53;2.33;;;5.20;99.90;;;;;;5111758;28;20419;-56
2023/01/10 03:17:29;;;;;;;2.23;2.13;;;5.30;99.90;;;;;;5113162;28;20451;-56
2023/01/10 03:20:02;;;;;;;2.63;2.43;;;5.30;99.90;;;;;;5113441;28;20478;-55
2023/01/10 03:22:31;;;;;;;2.33;2.20;;;5.20;99.90;;;;;;5111468;28;20462;-55
2023/01/10 03:25:01;;;;;;;4.77;2.10;;;5.20;99.90;;;;;;5113008;28;20442;-56
2023/01/10 03:27:33;;;;;;;3.20;2.23;;;5.20;99.90;;;;;;5112643;28;20580;-56
2023/01/10 03:30:06;;;;;;;2.70;2.50;;;5.30;99.90;;;;;;5110532;28;20463;-56
2023/01/10 03:32:34;;;;;;;5.10;3.30;;;5.30;99.90;;;;;;5112601;28;20434;-55
2023/01/10 03:35:04;;;;;;;6.90;2.90;;;5.30;99.90;;;;;;5112890;28;20442;-55
2023/01/10 03:37:37;;;;;;;4.87;3.10;;;5.30;99.90;;;;;;5110811;28;20442;-55
2023/01/10 03:40:13;;;;;;;4.20;3.17;;;5.30;99.90;;;;;;5112114;28;20839;-54
2023/01/10 03:45:41;;;;;;;5.67;3.40;;;5.30;99.90;;;;;;5110687;28;20529;-55
2023/01/10 03:48:11;;;;;;;4.80;3.10;;;5.30;99.90;;;;;;5112344;28;20423;-54
2023/01/10 03:50:41;;;;;;;8.83;3.10;;;5.40;99.90;;;;;;5112675;28;20458;-55
2023/01/10 03:53:08;;;;;;;4.03;3.00;;;5.40;99.90;;;;;;5110484;28;20446;-55
2023/01/10 03:55:36;;;;;;;5.17;3.40;;;5.30;99.90;;;;;;5113193;28;20459;-55
2023/01/10 03:58:03;;;;;;;3.80;2.87;;;5.40;99.90;;;;;;5111756;28;20439;-55
2023/01/10 04:00:30;;;;;;;3.77;3.07;;;5.40;99.90;;;;;;5108537;28;20462;-55
2023/01/10 04:02:58;;;;;;;3.30;2.90;;;5.40;99.90;;;;;;5112133;28;20438;-54
2023/01/10 04:05:25;;;;;;;2.80;2.60;;;5.30;99.90;;;;;;5112168;28;21022;-55
2023/01/10 04:07:54;;;;;;;4.70;2.70;;;5.30;99.90;;;;;;5110592;28;20485;-55
2023/01/10 04:10:21;;;;;;;3.83;2.63;;;5.30;99.90;;;;;;5112534;28;20466;-55
2023/01/10 04:12:48;;;;;;;5.83;2.50;;;5.40;99.90;;;;;;5112765;28;20798;-55
2023/01/10 04:15:15;;;;;;;3.40;3.10;;;5.40;99.90;;;;;;5110705;28;20443;-55
2023/01/10 04:17:42;;;;;;;2.43;2.20;;;5.30;99.90;;;;;;5112632;28;20913;-55
2023/01/10 04:20:11;;;;;;;2.90;2.60;;;5.40;99.90;;;;;;5112139;28;20466;-55
2023/01/10 04:22:38;;;;;;;4.87;2.50;;;5.30;99.90;;;;;;5110429;28;20478;-56
2023/01/10 04:25:08;;;;;;;3.70;2.57;;;5.30;99.90;;;;;;5112489;28;20537;-55
2023/01/10 04:27:35;;;;;;;6.23;2.47;;;5.30;99.90;;;;;;5111552;28;20446;-56
2023/01/10 04:30:02;;;;;;;5.57;2.97;;;5.20;99.90;;;;;;5109688;28;20467;-55
2023/01/10 04:32:29;;;;;;;5.13;2.70;;;5.20;99.90;;;;;;5112333;28;20525;-55
2023/01/10 04:34:56;;;;;;;3.30;3.00;;;5.30;99.90;;;;;;5112128;28;20451;-55
2023/01/10 04:37:23;;;;;;;3.63;3.23;;;5.30;99.90;;;;;;5110283;28;21058;-55
2023/01/10 04:39:50;;;;;;;8.70;2.80;;;5.30;99.90;;;;;;5113221;28;20568;-55
2023/01/10 04:42:19;;;;;;;7.20;2.67;;;5.20;99.90;;;;;;5114503;28;20482;-55
2023/01/10 04:44:46;;;;;;;3.33;2.90;;;5.20;99.90;;;;;;5113780;28;20455;-55
2023/01/10 04:47:13;;;;;;;4.77;3.17;;;5.20;99.90;;;;;;5115794;28;20446;-55
2023/01/10 04:49:40;;;;;;;5.90;2.90;;;5.20;99.90;;;;;;5114062;28;20458;-55
2023/01/10 04:52:07;;;;;;;4.27;2.60;;;5.20;99.90;;;;;;5113240;28;20801;-55
2023/01/10 04:54:34;;;;;;;3.43;2.80;;;5.20;99.90;;;;;;5115154;28;20454;-55
2023/01/10 04:57:01;;;;;;;8.93;2.80;;;5.10;99.90;;;;;;5115140;28;20450;-55
2023/01/10 04:59:30;;;;;;;8.33;3.27;;;5.20;99.90;;;;;;5113422;28;20533;-55
2023/01/10 05:01:58;;;;;;;4.10;3.07;;;5.10;99.90;;;;;;5115100;28;20474;-55
2023/01/10 05:04:25;;;;;;;8.00;2.70;;;5.10;99.90;;;;;;5115901;28;20450;-55
2023/01/10 05:06:52;;;;;;;8.37;3.27;;;5.10;99.90;;;;;;5113789;28;20454;-56
2023/01/10 05:09:19;;;;;;;7.53;3.37;;;5.10;99.90;;;;;;5115767;28;20545;-55
2023/01/10 05:11:47;;;;;;;6.50;2.73;;;5.10;99.90;;;;;;5115819;28;20489;-54
2023/01/10 05:14:14;;;;;;;8.63;3.23;;;5.10;99.90;;;;;;5113870;28;20450;-55
2023/01/10 05:16:43;;;;;;;6.03;3.80;;;5.10;99.90;;;;;;5115465;28;20449;-55
2023/01/10 05:19:11;;;;;;;4.50;4.03;;;5.10;99.90;;;;;;5115757;28;20491;-55
2023/01/10 05:21:38;;;;;;;9.80;3.60;;;5.10;99.90;;;;;;5113207;28;21043;-56
2023/01/10 05:24:06;;;;;;;8.70;3.63;;;5.20;99.90;;;;;;5115493;28;20434;-55
2023/01/10 05:26:33;;;;;;;6.30;3.40;;;5.20;99.90;;;;;;5115840;28;20809;-54
2023/01/10 05:29:00;;;;;;;9.57;3.27;;;5.20;99.90;;;;;;5113544;28;20450;-55
2023/01/10 05:31:27;;;;;;;9.13;4.43;;;5.20;99.90;;;;;;5115619;28;20478;-55
2023/01/10 05:33:56;;;;;;;4.07;2.90;;;5.30;99.90;;;;;;5115328;28;20439;-56
2023/01/10 05:36:23;;;;;;;7.43;3.60;;;5.30;99.90;;;;;;5112950;28;20839;-55
2023/01/10 05:38:50;;;;;;;13.97;4.13;;;5.30;99.90;;;;;;5114628;28;20461;-55
2023/01/10 05:41:17;;;;;;;8.00;3.30;;;5.30;99.90;;;;;;5113563;28;20785;-55
2023/01/10 05:43:44;;;;;;;7.57;3.60;;;5.30;99.90;;;;;;5112333;28;20458;-55
2023/01/10 05:46:11;;;;;;;7.30;3.10;;;5.30;99.90;;;;;;5115453;28;20450;-54
2023/01/10 05:48:38;;;;;;;8.70;3.80;;;5.40;99.90;;;;;;5115771;28;20533;-55
2023/01/10 05:51:07;;;;;;;8.97;3.10;;;5.40;99.90;;;;;;5112340;28;20478;-55
2023/01/10 05:53:34;;;;;;;7.20;3.20;;;5.40;99.90;;;;;;5115143;28;20813;-54
2023/01/10 05:56:02;;;;;;;10.40;3.60;;;5.40;99.90;;;;;;5115171;28;20925;-55
2023/01/10 05:58:30;;;;;;;6.93;3.87;;;5.40;99.90;;;;;;5112467;28;20956;-55
2023/01/10 06:00:58;;;;;;;6.00;2.90;;;5.50;99.90;;;;;;5113772;28;20467;-55
2023/01/10 06:03:25;;;;;;;7.00;3.03;;;5.50;99.90;;;;;;5114435;28;20474;-55
2023/01/10 06:05:53;;;;;;;6.83;3.53;;;5.40;99.90;;;;;;5112196;28;20447;-55
2023/01/10 06:08:21;;;;;;;5.87;3.37;;;5.50;99.90;;;;;;5113768;28;20462;-55
2023/01/10 06:10:49;;;;;;;5.63;2.70;;;5.60;99.90;;;;;;5113717;28;20502;-55
2023/01/10 06:13:16;;;;;;;8.77;2.70;;;5.60;99.90;;;;;;5111623;28;20447;-55
2023/01/10 06:15:44;;;;;;;6.60;2.93;;;5.60;99.90;;;;;;5113421;28;20446;-55
2023/01/10 06:18:11;;;;;;;6.53;3.57;;;5.60;99.90;;;;;;5114066;28;20446;-55
2023/01/10 06:20:38;;;;;;;5.47;2.57;;;5.60;99.90;;;;;;5112588;28;20466;-55
2023/01/10 06:23:05;;;;;;;9.43;4.20;;;5.60;99.90;;;;;;5114353;28;20991;-56
2023/01/10 06:25:35;;;;;;;3.70;2.90;;;5.70;99.90;;;;;;5113759;28;20450;-55
2023/01/10 06:28:03;;;;;;;4.53;2.17;;;5.70;99.90;;;;;;5112523;28;20426;-55
2023/01/10 06:30:30;;;;;;;8.23;2.80;;;5.70;99.90;;;;;;5113992;28;20447;-54
2023/01/10 06:33:01;;;;;;;7.77;3.23;;;5.70;99.90;;;;;;5113748;28;20442;-55
2023/01/10 06:35:29;;;;;;;4.97;2.83;;;5.80;99.90;;;;;;5111408;28;20430;-56
2023/01/10 06:37:56;;;;;;;6.50;2.90;;;5.80;99.90;;;;;;5112805;28;20772;-55
2023/01/10 06:40:23;;;;;;;5.50;3.23;;;5.80;99.90;;;;;;5112498;28;20520;-55
2023/01/10 06:42:52;;;;;;;2.83;2.53;;;5.80;99.90;;;;;;5111166;28;20478;-55
2023/01/10 06:45:20;;;;;;;5.70;2.80;;;5.70;99.90;;;;;;5113178;28;20466;-55
2023/01/10 06:47:47;;;;;;;5.73;2.97;;;5.60;99.90;;;;;;5112652;28;20447;-56
2023/01/10 06:50:14;;;;;;;9.50;2.67;;;5.60;99.90;;;;;;5110854;28;20463;-56
2023/01/10 06:52:41;;;;;;;4.10;2.83;;;5.70;99.90;;;;;;5113154;28;20443;-57
2023/01/10 06:55:09;;;;;;;6.30;2.50;;;5.70;99.90;;;;;;5113715;28;20439;-55
2023/01/10 06:57:37;;;;;;;11.23;3.50;;;5.70;99.90;;;;;;5111230;28;20541;-57
2023/01/10 07:00:09;;;;;;;6.00;2.77;;;5.70;99.90;;;;;;5112918;28;20466;-56
2023/01/10 07:02:37;;;;;;;7.80;2.60;;;5.70;99.90;;;;;;5112977;28;20569;-56
2023/01/10 07:05:05;;;;;;;3.43;2.67;;;5.70;99.90;;;;;;5110871;28;20537;-57
2023/01/10 07:07:32;;;;;;;6.63;2.53;;;5.70;99.90;;;;;;5113497;28;20863;-56
2023/01/10 07:09:59;;;;;;;5.63;2.73;;;5.70;99.90;;;;;;5113326;28;20979;-57
2023/01/10 07:12:26;;;;;;;5.07;3.00;;;5.70;99.90;;;;;;5110682;28;20519;-57
2023/01/10 07:14:53;;;;;;;7.03;3.53;;;5.70;99.90;;;;;;5112176;28;20442;-55
2023/01/10 07:17:23;;;;;;;5.93;2.80;;;5.80;99.90;;;;;;5113460;28;20446;-56
2023/01/10 07:19:50;;;;;;;8.13;3.33;;;5.90;99.90;;;;;;5110602;28;20462;-56
2023/01/10 07:22:17;;;;;;;6.10;2.60;;;5.90;99.90;;;;;;5113130;28;20585;-55
2023/01/10 07:24:44;;;;;;;7.70;2.90;;;5.80;99.90;;;;;;5113177;28;20451;-54
2023/01/10 07:27:11;;;;;;;7.70;2.87;;;5.90;99.90;;;;;;5110961;28;20447;-55
2023/01/10 07:29:38;;;;;;;4.00;3.43;;;5.80;99.90;;;;;;5113382;28;20482;-54
2023/01/10 07:32:06;;;;;;;12.20;3.40;;;5.80;99.90;;;;;;5113434;28;20435;-54
2023/01/10 07:34:34;;;;;;;8.03;5.33;;;5.90;99.90;;;;;;5111011;28;20533;-54
2023/01/10 07:37:02;;;;;;;7.30;2.73;;;5.90;99.90;;;;;;5113148;28;20446;-54
2023/01/10 07:39:29;;;;;;;12.33;3.50;;;5.90;99.90;;;;;;5111997;28;21182;-55
2023/01/10 07:41:56;;;;;;;7.13;2.53;;;5.90;99.90;;;;;;5110138;28;20477;-55
2023/01/10 07:44:23;;;;;;;5.53;2.60;;;5.90;99.90;;;;;;5112766;28;20443;-55
2023/01/10 07:46:51;;;;;;;7.90;3.23;;;5.80;99.90;;;;;;5112969;28;20474;-54
2023/01/10 07:49:18;;;;;;;5.70;2.60;;;5.80;99.90;;;;;;5110457;28;20457;-54
2023/01/10 07:51:46;;;;;;;7.23;2.70;;;5.90;99.90;;;;;;5112870;28;20473;-55
2023/01/10 07:54:13;;;;;;;14.57;3.30;;;5.90;99.90;;;;;;5113116;28;20522;-56
2023/01/10 07:56:41;;;;;;;10.30;3.40;;;5.90;99.90;;;;;;5110613;28;20828;-56
2023/01/10 07:59:08;;;;;;;7.43;2.60;;;5.90;99.90;;;;;;5112289;28;20446;-57
2023/01/10 08:01:35;;;;;;;10.27;3.30;;;5.90;99.90;;;;;;5111969;28;20984;-56
2023/01/10 08:04:02;;;;;;;6.50;3.20;;;5.90;99.90;;;;;;5109941;28;20960;-56
2023/01/10 08:06:29;;;;;;;10.33;3.13;;;5.90;99.90;;;;;;5112294;28;20446;-56
2023/01/10 08:08:58;;;;;;;2.90;2.33;;;5.90;99.90;;;;;;5111818;28;20472;-55
2023/01/10 08:11:25;;;;;;;5.07;2.90;;;5.90;99.90;;;;;;5109666;28;20559;-56
2023/01/10 08:13:52;;;;;;;7.57;3.40;;;5.90;99.90;;;;;;5113540;28;20469;-56
2023/01/10 08:16:20;;;;;;;2.80;2.40;;;5.90;99.90;;;;;;5116135;28;20458;-56
2023/01/10 08:18:47;;;;;;;4.40;2.63;;;6.00;99.90;;;;;;5115062;28;20463;-56
2023/01/10 08:21:14;;;;;;;7.13;3.10;;;6.00;99.90;;;;;;5116554;28;20991;-56
2023/01/10 08:23:41;;;;;;;6.60;3.37;;;6.00;99.90;;;;;;5116327;28;20478;-56
2023/01/10 08:26:10;;;;;;;8.50;3.20;;;6.10;99.90;;;;;;5115047;28;20451;-56
2023/01/10 08:28:37;;;;;;;4.50;2.33;;;6.10;99.90;;;;;;5116284;28;21000;-56
2023/01/10 08:31:08;;;;;;;8.00;3.10;;;6.10;99.90;;;;;;5115853;28;20470;-55
2023/01/10 08:33:36;;;;;;;5.00;2.73;;;6.10;99.90;;;;;;5113173;28;20478;-56
2023/01/10 08:36:04;;;;;;;5.10;3.03;;;6.10;99.90;;;;;;5116118;28;20528;-56
2023/01/10 08:38:31;;;;;;;10.63;6.40;;;6.20;99.90;;;;;;5116212;28;20798;-56
2023/01/10 08:40:58;;;;;;;9.10;5.87;;;6.20;99.90;;;;;;5113575;28;20508;-57
2023/01/10 08:43:30;;;;;;;5.90;3.07;;;6.20;99.90;;;;;;5115819;28;20580;-56
2023/01/10 08:45:57;;;;;;;6.40;2.67;;;6.40;99.90;;;;;;5116189;28;20442;-55
2023/01/10 08:48:24;;;;;;;7.63;3.03;;;6.40;99.90;;;;;;5114513;28;20450;-55
2023/01/10 08:50:52;;;;;;;4.10;2.67;;;6.50;99.90;;;;;;5115987;28;20545;-55
2023/01/10 08:53:19;;;;;;;6.60;3.30;;;6.40;99.90;;;;;;5116039;28;20545;-55
2023/01/10 08:55:46;;;;;;;8.57;3.03;;;6.30;99.90;;;;;;5114179;28;20806;-54
2023/01/10 08:58:13;;;;;;;3.80;2.60;;;6.30;99.90;;;;;;5115762;28;20992;-55
2023/01/10 09:00:43;;;;;;;4.10;3.00;;;6.30;99.90;;;;;;5115911;28;20473;-55
2023/01/10 09:03:11;;;;;;;6.07;3.70;;;6.40;99.90;;;;;;5113487;28;20473;-55
2023/01/10 09:05:38;;;;;;;9.47;2.87;;;6.40;99.90;;;;;;5116078;28;20863;-55
2023/01/10 09:08:05;;;;;;;5.50;3.13;;;6.40;99.90;;;;;;5115588;28;20450;-55
2023/01/10 09:10:32;;;;;;;7.30;3.10;;;6.30;99.90;;;;;;5113611;28;20459;-54
2023/01/10 09:13:00;;;;;;;3.87;2.77;;;6.40;99.90;;;;;;5115839;28;20450;-55
2023/01/10 09:15:30;;;;;;;9.63;3.30;;;6.40;99.90;;;;;;5115932;28;20541;-55
2023/01/10 09:17:59;;;;;;;6.00;2.80;;;6.40;99.90;;;;;;5113572;28;20626;-54
2023/01/10 09:20:28;;;;;;;7.63;2.77;;;6.50;99.90;;;;;;5115234;28;20470;-54
2023/01/10 09:22:56;;;;;;;8.00;3.17;;;6.50;99.90;;;;;;5115492;28;20504;-53
2023/01/10 09:25:24;;;;;;;7.10;4.30;;;6.50;99.90;;;;;;5112304;28;20466;-54
2023/01/10 09:27:57;;;;;;;7.27;3.00;;;6.50;99.90;;;;;;5115279;28;20454;-54
2023/01/10 09:30:25;;;;;;;5.77;3.37;;;6.50;99.90;;;;;;5115621;28;20840;-53
2023/01/10 09:32:52;;;;;;;8.10;3.27;;;6.30;99.90;;;;;;5113283;28;20548;-53
2023/01/10 09:35:21;;;;;;;3.37;2.70;;;6.30;99.90;;;;;;5115338;28;20530;-54
2023/01/10 09:37:49;;;;;;;3.00;2.77;;;6.20;99.90;;;;;;5115419;28;20449;-53
2023/01/10 09:40:19;;;;;;;5.93;3.10;;;6.30;99.90;;;;;;5113099;28;20985;-52
2023/01/10 09:42:59;;;;;;;8.83;3.30;;;6.20;99.90;;;;;;5114997;28;20467;-53
2023/01/10 09:45:36;;;;;;;9.47;3.23;;;6.10;99.90;;;;;;5115728;28;20510;-54
2023/01/10 09:48:07;;;;;;;3.53;3.23;;;6.20;99.90;;;;;;5112671;28;20905;-54
2023/01/10 09:50:45;;;;;;;5.10;3.00;;;6.40;99.90;;;;;;5115098;28;20462;-54
2023/01/10 09:53:16;;;;;;;6.27;3.13;;;6.40;99.90;;;;;;5114980;28;20963;-54
2023/01/10 09:55:46;;;;;;;8.17;2.90;;;6.50;99.90;;;;;;5112546;28;20434;-54
2023/01/10 09:58:16;;;;;;;8.70;3.33;;;6.50;99.90;;;;;;5114586;28;20485;-53
2023/01/10 10:00:47;;;;;;;11.23;3.47;;;6.40;99.90;;;;;;5114543;28;20557;-55
2023/01/10 10:03:25;;;;;;;9.50;3.90;;;6.30;99.90;;;;;;5112424;28;20572;-55
2023/01/10 10:05:54;;;;;;;5.07;3.17;;;6.20;99.90;;;;;;5115069;28;20533;-55
2023/01/10 10:08:21;;;;;;;5.17;3.50;;;6.30;99.90;;;;;;5114981;28;20480;-55
2023/01/10 10:11:00;;;;;;;9.50;3.47;;;6.40;99.90;;;;;;5112211;28;20547;-55
2023/01/10 10:13:40;;;;;;;12.07;3.30;;;6.30;99.90;;;;;;5114403;28;20488;-55
2023/01/10 10:16:22;;;;;;;5.70;3.00;;;6.40;99.90;;;;;;5112324;28;20791;-55
2023/01/10 10:19:00;;;;;;;9.10;3.80;;;6.40;99.90;;;;;;5114732;28;20423;-54
2023/01/10 10:21:39;;;;;;;6.93;2.80;;;6.70;99.90;;;;;;5114250;28;20462;-54
2023/01/10 10:24:22;;;;;;;6.03;2.93;;;6.80;99.90;;;;;;5112219;28;20470;-55
2023/01/10 10:26:56;;;;;;;4.87;3.00;;;6.90;99.90;;;;;;5115021;28;20410;-55
2023/01/10 10:30:17;;;;;;;5.80;2.87;;;7.00;99.90;;;;;;5114146;28;20521;-55
2023/01/10 10:33:05;;;;;;;9.00;3.13;;;7.10;99.90;;;;;;5029213;28;20521;-55
2023/01/10 10:35:38;;;;;;;4.87;3.00;;;7.10;99.90;;;;;;5028764;28;21046;-56
2023/01/10 10:38:12;;;;;;;4.77;2.93;;;7.10;99.90;;;;;;5082381;28;20453;-56
2023/01/10 10:40:44;;;;;;;8.90;2.77;;;7.10;99.90;;;;;;5113815;28;20473;-55
2023/01/10 10:43:20;;;;;;;5.33;2.93;;;7.00;99.90;;;;;;5113559;28;20465;-54
2023/01/10 10:45:52;;;;;;;4.10;2.80;;;6.90;99.90;;;;;;5111896;28;20427;-54
2023/01/10 10:48:24;;;;;;;3.17;2.80;;;7.00;99.90;;;;;;5114054;28;20422;-54
2023/01/10 10:51:02;;;;;;;7.70;2.67;;;7.70;99.90;;;;;;5113533;28;20837;-55
2023/01/10 10:53:32;;;;;;;4.60;2.70;;;7.90;99.90;;;;;;5111953;28;20427;-55
2023/01/10 10:56:00;;;;;;;5.57;2.63;;;8.00;99.90;;;;;;5113932;28;20449;-55
2023/01/10 10:58:29;;;;;;;5.50;3.10;;;8.10;99.90;;;;;;5113214;28;20954;-55
2023/01/10 11:00:57;;;;;;;3.73;2.70;;;7.90;99.90;;;;;;5111780;28;20494;-55
2023/01/10 11:03:35;;;;;;;3.43;2.27;;;7.70;99.90;;;;;;5113555;28;20481;-55
2023/01/10 11:06:03;;;;;;;7.57;2.33;;;7.60;99.90;;;;;;5113642;28;20578;-55
2023/01/10 11:08:31;;;;;;;5.83;2.87;;;7.40;99.90;;;;;;5111694;28;20450;-54
2023/01/10 11:11:02;;;;;;;7.60;3.60;;;7.40;99.90;;;;;;5113528;28;20811;-54
2023/01/10 11:13:42;;;;;;;6.17;2.37;;;7.30;99.90;;;;;;5113288;28;20435;-55
2023/01/10 11:16:23;;;;;;;2.80;2.40;;;7.30;99.90;;;;;;5111364;28;20794;-55
2023/01/10 11:19:10;;;;;;;3.00;2.53;;;7.30;99.90;;;;;;5113323;28;20480;-55
2023/01/10 11:21:40;;;;;;;3.70;2.50;;;7.30;99.90;;;;;;5113102;28;21006;-54
2023/01/10 11:24:36;;;;;;;7.00;2.80;;;7.00;99.90;;;;;;5111154;28;20487;-54
2023/01/10 11:27:15;;;;;;;6.30;2.50;;;7.00;99.90;;;;;;5113346;28;21155;-53
2023/01/10 11:30:17;;;;;;;4.77;2.20;;;7.20;99.90;;;;;;5113158;28;20427;-54
2023/01/10 11:32:52;;;;;;;6.40;2.53;;;7.70;99.90;;;;;;5110743;28;20507;-54
2023/01/10 11:35:22;;;;;;;3.70;2.77;;;7.80;99.90;;;;;;5113106;28;20421;-54
2023/01/10 11:37:59;;;;;;;6.73;2.83;;;7.70;99.90;;;;;;5111182;28;20427;-54
2023/01/10 11:40:29;;;;;;;6.40;2.40;;;7.60;99.90;;;;;;5112222;28;20503;-54
2023/01/10 11:42:58;;;;;;;7.10;2.90;;;7.50;99.90;;;;;;5112710;28;20538;-54
2023/01/10 11:45:31;;;;;;;14.60;4.43;;;7.50;99.90;;;;;;5109882;28;20451;-54
2023/01/10 11:48:07;;;;;;;8.37;3.40;;;7.70;99.90;;;;;;5111883;28;20909;-54
2023/01/10 11:50:36;;;;;;;7.67;3.00;;;7.60;99.90;;;;;;5112244;28;20522;-53
2023/01/10 11:53:06;;;;;;;8.63;2.30;;;7.80;99.90;;;;;;5109748;28;20537;-54
2023/01/10 11:55:38;;;;;;;6.20;2.97;;;7.60;99.90;;;;;;5112397;28;20447;-54
2023/01/10 11:58:08;;;;;;;4.30;1.90;;;7.70;99.90;;;;;;5112419;28;20530;-54
2023/01/10 12:00:40;;;;;;;3.50;2.60;;;7.60;99.90;;;;;;5110550;28;20473;-55
2023/01/10 12:03:20;;;;;;;3.30;2.20;;;7.60;99.90;;;;;;5112449;28;20518;-54
2023/01/10 12:05:53;;;;;;;3.37;2.27;;;7.70;99.90;;;;;;5112187;28;20430;-55
2023/01/10 12:08:27;;;;;;;5.43;2.57;;;7.70;99.90;;;;;;5110634;28;20472;-54
2023/01/10 12:11:01;;;;;;;7.23;2.67;;;7.80;99.90;;;;;;5111935;28;20473;-54
2023/01/10 12:13:30;;;;;;;4.80;2.20;;;7.90;99.90;;;;;;5112046;28;20423;-55
2023/01/10 12:16:21;;;;;;;5.70;2.50;;;8.30;99.90;;;;;;5110026;28;20541;-55
2023/01/10 12:18:49;;;;;;;5.30;2.23;;;8.50;99.90;;;;;;5111890;28;20474;-55
2023/01/10 12:21:21;;;;;;;4.27;2.20;;;8.90;99.90;;;;;;5111939;28;20562;-55
2023/01/10 12:23:50;;;;;;;6.60;2.57;;;8.80;99.90;;;;;;5110066;28;20550;-54
2023/01/10 12:26:19;;;;;;;4.20;2.60;;;8.80;99.90;;;;;;5111448;28;20481;-55
2023/01/10 12:28:51;;;;;;;4.70;2.50;;;8.80;99.90;;;;;;5111459;28;20485;-55
2023/01/10 12:31:21;;;;;;;6.97;2.70;;;8.50;99.90;;;;;;5109609;28;20468;-55
2023/01/10 12:33:54;;;;;;;4.67;2.43;;;8.40;99.90;;;;;;5112115;28;20542;-55
2023/01/10 12:36:34;;;;;;;4.60;1.90;;;8.20;99.90;;;;;;5112630;28;20445;-55
2023/01/10 12:39:13;;;;;;;5.20;2.50;;;8.20;99.90;;;;;;5112131;28;20464;-54
2023/01/10 12:44:41;;;;;;;3.93;2.70;;;8.10;99.90;;;;;;5110315;28;20458;-55
2023/01/10 12:47:19;;;;;;;7.10;1.80;;;8.00;99.90;;;;;;5111904;28;20944;-56
2023/01/10 12:49:51;;;;;;;5.10;2.20;;;8.00;99.90;;;;;;5111564;28;20550;-56
2023/01/10 12:52:27;;;;;;;3.40;1.70;;;8.10;99.90;;;;;;5109637;28;20563;-56
2023/01/10 12:54:54;;;;;;;2.73;2.40;;;8.20;99.90;;;;;;5111027;28;20423;-56
2023/01/10 12:57:31;;;;;;;6.33;3.40;;;8.00;99.90;;;;;;5111846;28;20480;-56
2023/01/10 13:00:01;;;;;;;5.20;2.60;;;8.00;99.90;;;;;;5109543;28;20466;-56
2023/01/10 13:02:38;;;;;;;3.40;2.37;;;7.90;99.90;;;;;;5115164;28;20431;-56
2023/01/10 13:05:06;;;;;;;5.90;2.60;;;7.70;99.90;;;;;;5114642;28;21083;-56
2023/01/10 13:07:35;;;;;;;5.10;2.57;;;7.70;99.90;;;;;;5112894;28;20533;-55
2023/01/10 13:10:04;;;;;;;3.50;2.30;;;7.70;99.90;;;;;;5114640;28;20507;-56
2023/01/10 13:12:38;;;;;;;2.93;1.90;;;7.70;99.90;;;;;;5115047;28;20438;-56
2023/01/10 13:15:11;;;;;;;6.77;2.33;;;7.70;99.90;;;;;;5112937;28;20427;-55
2023/01/10 13:17:43;;;;;;;5.00;2.97;;;7.80;99.90;;;;;;5115004;28;20426;-55
2023/01/10 13:20:35;;;;;;;6.13;2.60;;;7.70;99.90;;;;;;5114842;28;20999;-55
2023/01/10 13:23:26;;;;;;;6.90;2.53;;;7.60;99.90;;;;;;5112113;28;20790;-54
2023/01/10 13:26:07;;;;;;;5.87;2.90;;;7.70;99.90;;;;;;5114632;28;20862;-56
2023/01/10 13:28:39;;;;;;;3.80;3.50;;;7.70;99.90;;;;;;5112496;28;20439;-55